createdAt,value
2023-11-30T00:00:21.562Z,96391.65
2023-11-30T00:03:12.355Z,96388.87
2023-11-30T00:05:43.594Z,96387.25
2023-11-30T00:08:14.886Z,96394.88
2023-11-30T00:10:46.136Z,96397.45
2023-11-30T00:13:17.472Z,96398.71
2023-11-30T00:15:48.804Z,96401.73
2023-11-30T00:18:19.999Z,96396.04
2023-11-30T00:20:49.658Z,96394.07
2023-11-30T00:23:20.696Z,96392.10
2023-11-30T00:25:51.764Z,96394.88
2023-11-30T00:28:23.023Z,96397.45
2023-11-30T00:30:54.106Z,96400.02
2023-11-30T00:33:25.256Z,96402.34
2023-11-30T00:35:55.149Z,96400.58
2023-11-30T00:38:26.336Z,96399.46
2023-11-30T00:40:57.595Z,96401.08
2023-11-30T00:43:28.733Z,96398.35
2023-11-30T00:46:06.751Z,96399.57
2023-11-30T00:48:41.198Z,96406.48
2023-11-30T00:51:11.709Z,96401.98
2023-11-30T00:53:41.398Z,96399.21
2023-11-30T00:56:14.171Z,96403.55
2023-11-30T00:58:45.384Z,96404.41
2023-11-30T01:01:16.735Z,96408.50
2023-11-30T01:03:48.459Z,96409.11
2023-11-30T01:06:19.776Z,96411.06
2023-11-30T01:08:51.130Z,96413.61
2023-11-30T01:11:22.320Z,96414.27
2023-11-30T01:13:53.484Z,96420.17
2023-11-30T01:16:24.654Z,96419.77
2023-11-30T01:18:55.726Z,96424.45
2023-11-30T01:21:26.964Z,96418.70
2023-11-30T01:23:58.123Z,96421.17
2023-11-30T01:26:29.344Z,96424.75
2023-11-30T01:29:00.319Z,96425.61
2023-11-30T01:31:32.340Z,96427.21
2023-11-30T01:34:03.518Z,96430.35
2023-11-30T01:36:34.657Z,96422.58
2023-11-30T01:39:06.174Z,96423.83
2023-11-30T01:41:39.739Z,96432.52
2023-11-30T01:44:11.437Z,96437.73
2023-11-30T01:46:42.682Z,96439.23
2023-11-30T01:49:13.857Z,96437.41
2023-11-30T01:51:45.601Z,96440.95
2023-11-30T01:54:18.054Z,96440.29
2023-11-30T01:56:49.415Z,96438.83
2023-11-30T01:59:20.771Z,96434.48
2023-11-30T02:01:52.356Z,96428.82
2023-11-30T02:04:23.641Z,96433.11
2023-11-30T02:06:54.892Z,96433.46
2023-11-30T02:09:25.775Z,96433.52
2023-11-30T02:11:57.132Z,96436.20
2023-11-30T02:14:28.205Z,96429.89
2023-11-30T02:16:59.391Z,96428.73
2023-11-30T02:19:30.721Z,96429.79
2023-11-30T02:22:01.993Z,96428.94
2023-11-30T02:24:33.912Z,96428.78
2023-11-30T02:27:05.067Z,96426.21
2023-11-30T02:29:36.256Z,96417.58
2023-11-30T02:32:08.207Z,96409.74
2023-11-30T02:34:39.293Z,96410.55
2023-11-30T02:37:10.620Z,96412.67
2023-11-30T02:39:42.017Z,96411.91
2023-11-30T02:42:13.304Z,96414.08
2023-11-30T02:44:43.052Z,96417.27
2023-11-30T02:47:14.178Z,96413.13
2023-11-30T02:49:45.606Z,96410.40
2023-11-30T02:52:16.913Z,96410.35
2023-11-30T02:54:46.787Z,96408.98
2023-11-30T02:57:18.316Z,96409.59
2023-11-30T02:59:49.900Z,96412.02
2023-11-30T03:02:21.191Z,96413.48
2023-11-30T03:04:51.131Z,96411.42
2023-11-30T03:07:23.446Z,96412.54
2023-11-30T03:09:55.072Z,96411.72
2023-11-30T03:12:26.188Z,96415.97
2023-11-30T03:14:57.396Z,96411.67
2023-11-30T03:17:28.642Z,96407.02
2023-11-30T03:19:59.807Z,96405.11
2023-11-30T03:22:31.231Z,96403.64
2023-11-30T03:25:02.493Z,96404.86
2023-11-30T03:27:34.157Z,96401.17
2023-11-30T03:30:06.534Z,96404.00
2023-11-30T03:32:37.690Z,96399.69
2023-11-30T03:35:10.066Z,96400.86
2023-11-30T03:37:44.003Z,96399.45
2023-11-30T03:40:15.908Z,96400.50
2023-11-30T03:42:47.363Z,96397.11
2023-11-30T03:45:18.663Z,96395.09
2023-11-30T03:47:48.748Z,96395.89
2023-11-30T03:50:19.874Z,96388.22
2023-11-30T03:52:51.258Z,96390.48
2023-11-30T03:55:23.548Z,96382.56
2023-11-30T03:57:54.761Z,96381.15
2023-11-30T04:02:58.080Z,96374.93
2023-11-30T04:05:27.985Z,96374.92
2023-11-30T04:08:01.622Z,96371.95
2023-11-30T04:10:33.020Z,96376.35
2023-11-30T04:13:04.240Z,96373.94
2023-11-30T04:15:35.799Z,96373.43
2023-11-30T04:18:07.043Z,96376.41
2023-11-30T04:20:38.290Z,96373.48
2023-11-30T04:25:40.902Z,96369.61
2023-11-30T04:28:12.738Z,96368.04
2023-11-30T04:30:43.995Z,96360.02
2023-11-30T04:33:15.547Z,96363.05
2023-11-30T04:35:47.252Z,96363.91
2023-11-30T04:38:18.503Z,96361.09
2023-11-30T04:40:49.643Z,96355.23
2023-11-30T04:43:22.333Z,96355.55
2023-11-30T04:45:57.773Z,96355.11
2023-11-30T04:48:29.129Z,96353.80
2023-11-30T04:51:00.584Z,96352.73
2023-11-30T04:53:32.593Z,96349.95
2023-11-30T04:56:04.007Z,96351.71
2023-11-30T04:58:33.829Z,96349.61
2023-11-30T05:01:05.150Z,96351.45
2023-11-30T05:03:37.108Z,96349.65
2023-11-30T05:06:10.449Z,96347.63
2023-11-30T05:08:41.621Z,96347.94
2023-11-30T05:11:12.805Z,96346.98
2023-11-30T05:13:43.812Z,96354.40
2023-11-30T05:16:16.047Z,96358.03
2023-11-30T05:18:47.412Z,96365.35
2023-11-30T05:21:18.673Z,96369.34
2023-11-30T05:23:49.822Z,96367.48
2023-11-30T05:26:20.831Z,96366.77
2023-11-30T05:28:52.027Z,96370.35
2023-11-30T05:31:23.256Z,96368.09
2023-11-30T05:33:54.764Z,96364.65
2023-11-30T05:36:26.061Z,96363.74
2023-11-30T05:38:57.262Z,96369.80
2023-11-30T05:41:28.664Z,96377.42
2023-11-30T05:43:59.745Z,96375.77
2023-11-30T05:46:30.891Z,96375.70
2023-11-30T05:49:02.048Z,96372.58
2023-11-30T05:51:34.043Z,96369.45
2023-11-30T05:54:05.270Z,96372.28
2023-11-30T05:56:35.113Z,96374.35
2023-11-30T05:59:06.310Z,96379.59
2023-11-30T06:01:37.476Z,96382.21
2023-11-30T06:04:08.704Z,96387.86
2023-11-30T06:06:40.036Z,96383.88
2023-11-30T06:09:11.108Z,96384.14
2023-11-30T06:11:42.141Z,96388.73
2023-11-30T06:14:13.227Z,96389.02
2023-11-30T06:16:44.233Z,96391.30
2023-11-30T06:19:15.511Z,96396.39
2023-11-30T06:21:45.276Z,96392.86
2023-11-30T06:24:16.410Z,96392.00
2023-11-30T06:26:47.520Z,96391.70
2023-11-30T06:29:18.729Z,96392.20
2023-11-30T06:31:49.849Z,96392.30
2023-11-30T06:34:21.684Z,96395.58
2023-11-30T06:36:53.044Z,96392.41
2023-11-30T06:39:24.226Z,96394.98
2023-11-30T06:41:55.494Z,96395.89
2023-11-30T06:44:27.073Z,96398.71
2023-11-30T06:46:58.369Z,96399.27
2023-11-30T06:49:29.603Z,96400.48
2023-11-30T06:52:04.186Z,96400.02
2023-11-30T06:54:36.971Z,96394.27
2023-11-30T06:57:08.299Z,96392.40
2023-11-30T06:59:39.472Z,96390.44
2023-11-30T07:02:10.801Z,96390.48
2023-11-30T07:04:42.726Z,96387.16
2023-11-30T07:07:23.620Z,96391.90
2023-11-30T07:10:01.951Z,96386.75
2023-11-30T07:12:34.659Z,96387.05
2023-11-30T07:15:05.092Z,96387.60
2023-11-30T07:17:34.771Z,96387.35
2023-11-30T07:20:08.016Z,96382.45
2023-11-30T07:22:39.231Z,96390.08
2023-11-30T07:25:11.797Z,96386.19
2023-11-30T07:27:44.280Z,96387.38
2023-11-30T07:30:15.786Z,96385.90
2023-11-30T07:32:47.317Z,96387.66
2023-11-30T07:35:17.060Z,96392.10
2023-11-30T07:37:48.136Z,96390.73
2023-11-30T07:40:19.636Z,96390.84
2023-11-30T07:42:49.169Z,96393.45
2023-11-30T07:45:20.295Z,96401.73
2023-11-30T07:47:51.465Z,96405.05
2023-11-30T07:50:22.694Z,96409.70
2023-11-30T07:52:53.746Z,96409.30
2023-11-30T07:55:24.700Z,96409.08
2023-11-30T07:57:55.859Z,96412.46
2023-11-30T08:00:26.882Z,96417.60
2023-11-30T08:02:58.146Z,96416.94
2023-11-30T08:05:27.969Z,96415.86
2023-11-30T08:07:59.132Z,96411.95
2023-11-30T08:10:30.830Z,96406.13
2023-11-30T08:13:02.027Z,96409.24
2023-11-30T08:15:31.688Z,96406.90
2023-11-30T08:18:02.948Z,96407.64
2023-11-30T08:20:35.193Z,96405.88
2023-11-30T08:23:06.317Z,96402.73
2023-11-30T08:25:37.527Z,96401.27
2023-11-30T08:28:07.307Z,96401.10
2023-11-30T08:30:38.699Z,96403.57
2023-11-30T08:33:10.622Z,96402.58
2023-11-30T08:35:41.785Z,96404.89
2023-11-30T08:38:13.240Z,96401.07
2023-11-30T08:40:44.446Z,96396.64
2023-11-30T08:43:15.427Z,96397.17
2023-11-30T08:45:46.841Z,96394.57
2023-11-30T08:48:17.996Z,96391.95
2023-11-30T08:50:49.623Z,96393.86
2023-11-30T08:53:22.345Z,96397.28
2023-11-30T08:55:53.468Z,96399.08
2023-11-30T08:58:24.506Z,96402.56
2023-11-30T09:00:55.615Z,96394.48
2023-11-30T09:03:27.963Z,96394.13
2023-11-30T09:05:59.088Z,96388.85
2023-11-30T09:08:30.012Z,96388.59
2023-11-30T09:11:01.197Z,96386.79
2023-11-30T09:13:33.425Z,96383.34
2023-11-30T09:16:04.881Z,96377.80
2023-11-30T09:18:35.839Z,96376.80
2023-11-30T09:21:08.419Z,96376.98
2023-11-30T09:23:39.590Z,96372.92
2023-11-30T09:26:13.126Z,96372.35
2023-11-30T09:28:44.242Z,96373.14
2023-11-30T09:31:15.403Z,96369.05
2023-11-30T09:33:46.819Z,96370.79
2023-11-30T09:36:16.890Z,96370.59
2023-11-30T09:38:48.025Z,96372.01
2023-11-30T09:41:22.335Z,96371.16
2023-11-30T09:43:53.795Z,96369.42
2023-11-30T09:46:23.313Z,96372.33
2023-11-30T09:48:54.700Z,96371.48
2023-11-30T09:51:25.994Z,96371.65
2023-11-30T09:53:58.618Z,96373.49
2023-11-30T09:56:30.085Z,96372.30
2023-11-30T09:59:01.805Z,96370.45
2023-11-30T10:01:34.799Z,96370.88
2023-11-30T10:04:17.007Z,96362.73
2023-11-30T10:06:49.357Z,96355.85
2023-11-30T10:09:20.450Z,96352.94
2023-11-30T10:11:51.693Z,96355.34
2023-11-30T10:14:23.015Z,96351.40
2023-11-30T10:16:52.626Z,96345.27
2023-11-30T10:19:23.939Z,96343.18
2023-11-30T10:21:58.015Z,96341.64
2023-11-30T10:24:29.680Z,96339.13
2023-11-30T10:27:06.767Z,96341.31
2023-11-30T10:29:42.387Z,96341.85
2023-11-30T10:32:15.418Z,96341.08
2023-11-30T10:34:49.522Z,96338.38
2023-11-30T10:37:24.308Z,96333.00
2023-11-30T10:40:01.979Z,96337.11
2023-11-30T10:42:36.239Z,96342.15
2023-11-30T10:45:12.497Z,96342.50
2023-11-30T10:47:44.014Z,96345.32
2023-11-30T10:50:15.024Z,96336.11
2023-11-30T10:52:47.300Z,96330.99
2023-11-30T10:55:21.463Z,96331.42
2023-11-30T10:57:58.379Z,96326.38
2023-11-30T11:00:37.134Z,96317.36
2023-11-30T11:03:12.358Z,96320.80
2023-11-30T11:05:47.834Z,96316.58
2023-11-30T11:08:19.343Z,96315.79
2023-11-30T11:10:51.824Z,96310.68
2023-11-30T11:13:26.400Z,96307.42
2023-11-30T11:16:04.843Z,96303.22
2023-11-30T11:18:37.184Z,96299.85
2023-11-30T11:21:25.440Z,96296.06
2023-11-30T11:24:04.718Z,96291.02
2023-11-30T11:26:48.092Z,96285.52
2023-11-30T11:29:27.099Z,96283.41
2023-11-30T11:32:03.381Z,96282.63
2023-11-30T11:34:34.585Z,96277.77
2023-11-30T11:37:08.335Z,96275.45
2023-11-30T11:39:41.245Z,96269.61
2023-11-30T11:42:12.380Z,96267.51
2023-11-30T11:44:43.506Z,96258.98
2023-11-30T11:47:14.490Z,96255.57
2023-11-30T11:49:45.437Z,96249.40
2023-11-30T11:52:23.799Z,96250.77
2023-11-30T11:55:06.007Z,96248.89
2023-11-30T11:57:38.717Z,96248.96
2023-11-30T12:00:15.173Z,96246.97
2023-11-30T12:02:47.470Z,96241.91
2023-11-30T12:05:26.754Z,96237.27
2023-11-30T12:08:00.742Z,96233.22
2023-11-30T12:10:34.691Z,96231.12
2023-11-30T12:13:05.921Z,96227.48
2023-11-30T12:15:37.090Z,96225.38
2023-11-30T12:18:09.356Z,96224.98
2023-11-30T12:20:40.927Z,96222.56
2023-11-30T12:23:11.957Z,96224.30
2023-11-30T12:25:43.058Z,96221.25
2023-11-30T12:28:14.358Z,96218.62
2023-11-30T12:30:47.004Z,96224.73
2023-11-30T12:33:18.424Z,96224.01
2023-11-30T12:35:49.721Z,96222.98
2023-11-30T12:38:20.857Z,96220.25
2023-11-30T12:40:51.928Z,96216.06
2023-11-30T12:43:23.051Z,96215.11
2023-11-30T12:45:54.443Z,96207.05
2023-11-30T12:48:25.699Z,96202.44
2023-11-30T12:50:56.804Z,96201.16
2023-11-30T12:53:28.169Z,96210.94
2023-11-30T12:55:59.134Z,96216.13
2023-11-30T12:58:30.243Z,96216.69
2023-11-30T13:01:01.330Z,96215.80
2023-11-30T13:03:32.873Z,96216.73
2023-11-30T13:06:04.799Z,96215.80
2023-11-30T13:08:36.433Z,96208.92
2023-11-30T13:11:07.820Z,96202.17
2023-11-30T13:13:42.315Z,96195.77
2023-11-30T13:16:16.339Z,96198.55
2023-11-30T13:18:46.231Z,96204.85
2023-11-30T13:21:17.462Z,96208.21
2023-11-30T13:23:48.758Z,96209.52
2023-11-30T13:26:21.463Z,96202.29
2023-11-30T13:28:53.028Z,96205.80
2023-11-30T13:31:24.228Z,96206.05
2023-11-30T13:33:55.376Z,96206.84
2023-11-30T13:36:26.705Z,96211.92
2023-11-30T13:38:56.306Z,96219.50
2023-11-30T13:41:27.520Z,96218.66
2023-11-30T13:43:58.826Z,96214.49
2023-11-30T13:46:28.317Z,96204.37
2023-11-30T13:48:59.905Z,96208.77
2023-11-30T13:51:30.953Z,96210.20
2023-11-30T13:54:02.353Z,96210.02
2023-11-30T13:56:34.141Z,96209.42
2023-11-30T13:59:05.674Z,96208.58
2023-11-30T14:01:36.812Z,96206.06
2023-11-30T14:04:09.574Z,96201.16
2023-11-30T14:06:42.037Z,96203.81
2023-11-30T14:09:15.802Z,96204.30
2023-11-30T14:11:46.912Z,96205.61
2023-11-30T14:14:18.055Z,96199.09
2023-11-30T14:16:49.095Z,96191.48
2023-11-30T14:19:20.427Z,96192.42
2023-11-30T14:21:51.579Z,96189.59
2023-11-30T14:24:22.627Z,96192.95
2023-11-30T14:26:59.707Z,96195.15
2023-11-30T14:29:29.205Z,96196.67
2023-11-30T14:32:00.849Z,96196.60
2023-11-30T14:34:31.921Z,96198.98
2023-11-30T14:37:02.640Z,96201.83
2023-11-30T14:39:33.746Z,96202.47
2023-11-30T14:42:05.575Z,96202.87
2023-11-30T14:44:37.201Z,96200.65
2023-11-30T14:47:09.393Z,96193.70
2023-11-30T14:49:40.623Z,96201.92
2023-11-30T14:52:11.651Z,96202.39
2023-11-30T14:54:42.868Z,96205.91
2023-11-30T14:57:15.817Z,96207.48
2023-11-30T14:59:47.253Z,96208.48
2023-11-30T15:02:18.659Z,96203.98
2023-11-30T15:04:48.210Z,96205.19
2023-11-30T15:07:19.456Z,96204.21
2023-11-30T15:09:50.765Z,96203.91
2023-11-30T15:12:20.462Z,96201.42
2023-11-30T15:14:52.266Z,96209.11
2023-11-30T15:17:23.433Z,96216.38
2023-11-30T15:19:55.338Z,96214.05
2023-11-30T15:22:26.636Z,96207.92
2023-11-30T15:24:57.637Z,96209.80
2023-11-30T15:27:28.971Z,96213.89
2023-11-30T15:30:00.034Z,96212.16
2023-11-30T15:32:33.279Z,96213.27
2023-11-30T15:35:04.541Z,96215.09
2023-11-30T15:37:36.460Z,96222.77
2023-11-30T15:40:10.218Z,96223.52
2023-11-30T15:42:41.509Z,96225.14
2023-11-30T15:45:14.201Z,96226.14
2023-11-30T15:47:45.649Z,96231.39
2023-11-30T15:50:16.957Z,96232.95
2023-11-30T15:52:48.041Z,96233.70
2023-11-30T15:55:19.217Z,96226.02
2023-11-30T15:57:50.303Z,96224.08
2023-11-30T16:00:22.227Z,96225.17
2023-11-30T16:02:53.376Z,96227.19
2023-11-30T16:05:24.828Z,96230.11
2023-11-30T16:07:56.141Z,96233.29
2023-11-30T16:10:27.666Z,96237.94
2023-11-30T16:12:58.902Z,96240.57
2023-11-30T16:15:30.095Z,96235.52
2023-11-30T16:18:01.217Z,96228.41
2023-11-30T16:20:33.002Z,96225.73
2023-11-30T16:23:05.305Z,96222.17
2023-11-30T16:25:37.081Z,96219.75
2023-11-30T16:28:08.181Z,96218.84
2023-11-30T16:30:39.350Z,96223.80
2023-11-30T16:33:10.782Z,96221.46
2023-11-30T16:35:42.794Z,96221.45
2023-11-30T16:38:13.989Z,96223.17
2023-11-30T16:40:45.040Z,96231.70
2023-11-30T16:43:16.568Z,96232.52
2023-11-30T16:45:46.353Z,96232.48
2023-11-30T16:48:19.607Z,96230.27
2023-11-30T16:50:50.964Z,96229.25
2023-11-30T16:53:20.473Z,96232.29
2023-11-30T16:55:51.573Z,96227.71
2023-11-30T16:58:22.716Z,96234.84
2023-11-30T17:00:54.139Z,96237.73
2023-11-30T17:03:26.735Z,96232.13
2023-11-30T17:05:58.280Z,96224.67
2023-11-30T17:08:29.640Z,96218.80
2023-11-30T17:11:00.353Z,96207.92
2023-11-30T17:13:32.474Z,96202.61
2023-11-30T17:16:05.565Z,96198.14
2023-11-30T17:18:40.450Z,96199.12
2023-11-30T17:21:11.707Z,96202.67
2023-11-30T17:23:45.263Z,96198.69
2023-11-30T17:26:16.496Z,96194.52
2023-11-30T17:28:47.894Z,96189.85
2023-11-30T17:31:19.138Z,96182.98
2023-11-30T17:33:50.664Z,96188.39
2023-11-30T17:36:22.439Z,96182.19
2023-11-30T17:38:53.670Z,96181.42
2023-11-30T17:41:24.999Z,96169.77
2023-11-30T17:43:56.703Z,96167.59
2023-11-30T17:46:28.105Z,96169.41
2023-11-30T17:48:59.075Z,96173.14
2023-11-30T17:51:30.229Z,96180.30
2023-11-30T17:54:02.182Z,96183.19
2023-11-30T17:56:34.024Z,96181.56
2023-11-30T17:59:05.598Z,96186.52
2023-11-30T18:01:36.758Z,96193.54
2023-11-30T18:04:08.781Z,96201.05
2023-11-30T18:06:39.929Z,96197.76
2023-11-30T18:09:11.409Z,96201.66
2023-11-30T18:11:42.924Z,96202.52
2023-11-30T18:14:14.721Z,96201.97
2023-11-30T18:16:46.370Z,96205.30
2023-11-30T18:19:15.979Z,96212.02
2023-11-30T18:21:47.298Z,96208.40
2023-11-30T18:24:18.300Z,96194.13
2023-11-30T18:26:49.486Z,96190.80
2023-11-30T18:29:20.991Z,96194.78
2023-11-30T18:31:52.523Z,96212.21
2023-11-30T18:34:23.937Z,96199.60
2023-11-30T18:36:53.774Z,96203.70
2023-11-30T18:39:25.603Z,96209.05
2023-11-30T18:41:56.876Z,96214.86
2023-11-30T18:44:28.065Z,96216.27
2023-11-30T18:46:59.468Z,96210.61
2023-11-30T18:49:30.532Z,96205.23
2023-11-30T18:52:01.805Z,96198.62
2023-11-30T18:54:33.058Z,96191.08
2023-11-30T18:57:04.298Z,96183.37
2023-11-30T18:59:35.427Z,96179.50
2023-11-30T19:02:06.926Z,96171.39
2023-11-30T19:04:39.457Z,96172.80
2023-11-30T19:07:10.953Z,96165.75
2023-11-30T19:09:42.028Z,96160.41
2023-11-30T19:12:13.628Z,96157.50
2023-11-30T19:14:44.779Z,96172.02
2023-11-30T19:17:16.073Z,96171.69
2023-11-30T19:19:45.943Z,96164.53
2023-11-30T19:22:18.444Z,96164.48
2023-11-30T19:24:50.065Z,96169.39
2023-11-30T19:27:21.407Z,96173.38
2023-11-30T19:29:52.832Z,96166.83
2023-11-30T19:32:23.915Z,96157.08
2023-11-30T19:34:55.232Z,96170.05
2023-11-30T19:37:26.500Z,96176.45
2023-11-30T19:39:59.028Z,96161.95
2023-11-30T19:42:32.028Z,96169.55
2023-11-30T19:45:03.418Z,96183.45
2023-11-30T19:47:35.025Z,96178.77
2023-11-30T19:50:07.235Z,96179.73
2023-11-30T19:52:39.680Z,96175.30
2023-11-30T19:55:13.055Z,96165.42
2023-11-30T19:57:44.160Z,96177.05
2023-11-30T20:00:16.909Z,96182.78
2023-11-30T20:02:48.185Z,96178.50
2023-11-30T20:05:19.417Z,96177.77
2023-11-30T20:07:50.508Z,96166.25
2023-11-30T20:10:21.635Z,96167.09
2023-11-30T20:12:53.700Z,96176.52
2023-11-30T20:15:25.380Z,96188.34
2023-11-30T20:17:56.728Z,96198.44
2023-11-30T20:20:28.146Z,96186.59
2023-11-30T20:22:58.699Z,96176.26
2023-11-30T20:25:30.203Z,96182.46
2023-11-30T20:28:01.424Z,96172.39
2023-11-30T20:30:32.633Z,96156.59
2023-11-30T20:33:03.986Z,96165.36
2023-11-30T20:35:35.192Z,96178.82
2023-11-30T20:38:06.392Z,96176.54
2023-11-30T20:40:37.491Z,96160.73
2023-11-30T20:43:08.716Z,96168.67
2023-11-30T20:45:40.507Z,96169.39
2023-11-30T20:48:12.045Z,96169.57
2023-11-30T20:50:43.304Z,96183.92
2023-11-30T20:53:15.502Z,96192.00
2023-11-30T20:55:47.839Z,96189.94
2023-11-30T20:58:19.106Z,96184.41
2023-11-30T21:00:51.514Z,96187.89
2023-11-30T21:03:22.853Z,96184.86
2023-11-30T21:05:53.944Z,96181.90
2023-11-30T21:08:25.185Z,96181.71
2023-11-30T21:10:56.328Z,96183.68
2023-11-30T21:13:28.107Z,96174.73
2023-11-30T21:16:00.263Z,96177.54
2023-11-30T21:18:31.777Z,96187.07
2023-11-30T21:21:02.978Z,96193.18
2023-11-30T21:23:34.194Z,96190.80
2023-11-30T21:26:05.652Z,96193.54
2023-11-30T21:28:37.589Z,96209.04
2023-11-30T21:31:10.934Z,96223.02
2023-11-30T21:33:42.006Z,96214.20
2023-11-30T21:36:16.233Z,96208.89
2023-11-30T21:38:47.730Z,96185.70
2023-11-30T21:41:20.096Z,96179.10
2023-11-30T21:43:51.291Z,96202.52
2023-11-30T21:46:22.391Z,96208.06
2023-11-30T21:48:53.616Z,96204.88
2023-11-30T21:51:29.933Z,96188.30
2023-11-30T21:54:02.152Z,96205.33
2023-11-30T21:56:33.516Z,96201.36
2023-11-30T21:59:04.635Z,96209.41
2023-11-30T22:01:35.853Z,96208.70
2023-11-30T22:04:08.027Z,96199.29
2023-11-30T22:06:39.786Z,96202.45
2023-11-30T22:09:09.478Z,96192.60
2023-11-30T22:11:43.812Z,96199.76
2023-11-30T22:14:15.095Z,96200.65
2023-11-30T22:16:46.540Z,96202.02
2023-11-30T22:19:18.015Z,96202.25
2023-11-30T22:21:49.144Z,96205.79
2023-11-30T22:24:20.416Z,96206.46
2023-11-30T22:26:51.491Z,96212.80
2023-11-30T22:29:22.501Z,96199.92
2023-11-30T22:31:53.431Z,96208.02
2023-11-30T22:34:26.242Z,96207.03
2023-11-30T22:36:57.899Z,96203.15
2023-11-30T22:39:29.341Z,96196.77
2023-11-30T22:42:00.760Z,96194.29
2023-11-30T22:44:33.563Z,96195.50
2023-11-30T22:47:04.788Z,96188.66
2023-11-30T22:49:35.843Z,96189.85
2023-11-30T22:52:07.671Z,96196.77
2023-11-30T22:54:39.014Z,96201.66
2023-11-30T22:57:10.229Z,96213.85
2023-11-30T22:59:41.419Z,96218.31
2023-11-30T23:02:13.409Z,96215.52
2023-11-30T23:04:44.854Z,96204.26
2023-11-30T23:07:16.824Z,96192.89
2023-11-30T23:09:48.645Z,96188.19
2023-11-30T23:12:19.782Z,96192.66
2023-11-30T23:14:51.186Z,96191.92
2023-11-30T23:17:22.421Z,96192.03
2023-11-30T23:19:53.656Z,96177.92
2023-11-30T23:22:24.817Z,96175.56
2023-11-30T23:24:56.538Z,96173.04
2023-11-30T23:27:26.057Z,96169.75
2023-11-30T23:29:57.084Z,96167.94
2023-11-30T23:32:28.171Z,96160.78
2023-11-30T23:34:59.338Z,96157.13
2023-11-30T23:37:30.428Z,96161.23
2023-11-30T23:40:01.912Z,96173.33
2023-11-30T23:42:34.277Z,96180.46
2023-11-30T23:45:06.564Z,96183.38
2023-11-30T23:47:38.289Z,96182.17
2023-11-30T23:50:11.193Z,96180.71
2023-11-30T23:52:42.850Z,96185.45
2023-11-30T23:55:14.298Z,96194.27
2023-11-30T23:57:45.692Z,96198.96
